createdAt,value
2023-02-17T00:09:37.920Z,65.40
2023-02-17T00:19:38.147Z,65.60
2023-02-17T00:29:38.254Z,65.30
2023-02-17T00:39:38.420Z,64.58
2023-02-17T00:49:38.660Z,64.04
2023-02-17T00:59:38.943Z,63.86
2023-02-17T01:09:39.044Z,63.32
2023-02-17T01:19:39.215Z,62.68
2023-02-17T01:29:39.490Z,62.88
2023-02-17T01:39:39.748Z,63.32
2023-02-17T01:49:40.040Z,63.63
2023-02-17T01:59:39.866Z,62.78
2023-02-17T02:09:40.111Z,62.68
2023-02-17T02:19:40.280Z,63.63
2023-02-17T02:29:40.547Z,63.43
2023-02-17T02:39:40.610Z,64.58
2023-02-17T02:49:40.858Z,65.50
2023-02-17T02:59:41.025Z,64.65
2023-02-17T03:09:41.356Z,65.67
2023-02-17T03:19:41.417Z,66.28
2023-02-17T03:29:41.637Z,67.21
2023-02-17T03:39:41.851Z,68.36
2023-02-17T03:49:41.969Z,69.07
2023-02-17T03:59:42.139Z,70.13
2023-02-17T04:09:42.370Z,69.79
2023-02-17T04:19:42.662Z,70.20
2023-02-17T04:29:42.749Z,70.51
2023-02-17T04:39:42.944Z,71.46
2023-02-17T04:49:43.168Z,71.66
2023-02-17T04:59:43.362Z,71.66
2023-02-17T05:09:43.604Z,72.28
2023-02-17T05:19:44.020Z,73.10
2023-02-17T05:29:44.018Z,74.15
2023-02-17T05:39:44.208Z,74.46
2023-02-17T05:49:44.434Z,74.43
2023-02-17T05:59:44.613Z,74.84
2023-02-17T06:09:47.005Z,74.63
2023-02-17T06:19:44.952Z,74.02
2023-02-17T06:29:45.173Z,70.71
2023-02-17T06:39:45.621Z,68.53
2023-02-17T06:49:45.505Z,67.51
2023-02-17T06:59:45.699Z,67.61
2023-02-17T07:09:46.019Z,67.71
2023-02-17T07:19:46.063Z,68.26
2023-02-17T07:29:46.312Z,68.02
2023-02-17T07:39:46.685Z,68.97
2023-02-17T07:49:46.581Z,69.15
2023-02-17T07:59:46.738Z,69.24
2023-02-17T08:09:46.982Z,69.76
2023-02-17T08:19:49.117Z,69.65
2023-02-17T08:29:47.307Z,70.06
2023-02-17T08:39:47.484Z,70.44
2023-02-17T08:49:47.731Z,68.81
2023-02-17T08:59:47.942Z,70.78
2023-02-17T09:09:48.332Z,72.21
2023-02-17T09:19:48.540Z,72.79
2023-02-17T09:29:48.465Z,71.36
2023-02-17T09:39:48.608Z,72.11
2023-02-17T09:49:48.884Z,73.97
2023-02-17T09:59:48.929Z,82.04
2023-02-17T10:09:49.274Z,81.43
2023-02-17T10:19:49.384Z,79.14
2023-02-17T10:29:49.788Z,77.64
2023-02-17T10:39:49.744Z,76.39
2023-02-17T10:49:49.986Z,76.83
2023-02-17T10:59:50.165Z,76.25
2023-02-17T11:09:50.408Z,74.96
2023-02-17T11:19:50.587Z,74.72
2023-02-17T11:29:50.762Z,75.87
2023-02-17T11:39:51.214Z,74.24
2023-02-17T11:49:51.214Z,74.01
2023-02-17T11:59:51.465Z,74.99
2023-02-17T12:09:51.454Z,76.55
2023-02-17T12:19:51.707Z,80.69
2023-02-17T12:29:51.814Z,82.19
2023-02-17T12:39:51.991Z,81.48
2023-02-17T12:49:52.226Z,81.79
2023-02-17T12:59:52.408Z,82.46
2023-02-17T13:09:52.825Z,81.95
2023-02-17T13:19:52.782Z,78.92
2023-02-17T13:29:53.073Z,79.23
2023-02-17T13:39:53.131Z,79.43
2023-02-17T13:49:53.616Z,79.33
2023-02-17T13:59:53.455Z,78.92
2023-02-17T14:09:53.706Z,79.33
2023-02-17T14:19:53.875Z,79.13
2023-02-17T14:29:54.094Z,78.78
2023-02-17T14:39:54.275Z,78.58
2023-02-17T14:49:54.676Z,78.14
2023-02-17T14:59:54.603Z,76.85
2023-02-17T15:09:54.822Z,76.14
2023-02-17T15:19:55.193Z,77.59
2023-02-17T15:29:55.552Z,78.34
2023-02-17T15:39:55.422Z,79.39
2023-02-17T15:49:55.533Z,77.80
2023-02-17T15:59:55.981Z,77.80
2023-02-17T16:09:55.884Z,78.85
2023-02-17T16:19:55.995Z,79.36
2023-02-17T16:29:56.247Z,80.24
2023-02-17T16:39:56.340Z,80.85
2023-02-17T16:49:56.574Z,80.76
2023-02-17T16:59:56.740Z,81.10
2023-02-17T17:10:15.226Z,80.99
2023-02-17T17:19:58.124Z,80.90
2023-02-17T17:29:57.377Z,80.90
2023-02-17T17:39:57.450Z,80.79
2023-02-17T17:49:57.685Z,81.30
2023-02-17T17:59:57.955Z,81.06
2023-02-17T18:09:58.046Z,80.62
2023-02-17T18:19:58.340Z,80.65
2023-02-17T18:29:58.485Z,80.76
2023-02-17T18:39:58.576Z,80.65
2023-02-17T18:49:58.693Z,80.45
2023-02-17T18:59:59.142Z,80.59
2023-02-17T19:09:59.002Z,81.10
2023-02-17T19:19:59.195Z,81.34
2023-02-17T19:29:59.485Z,82.46
2023-02-17T19:39:59.552Z,83.82
2023-02-17T19:49:59.938Z,85.08
2023-02-17T19:59:59.868Z,86.15
2023-02-17T20:10:00.135Z,86.86
2023-02-17T20:20:00.437Z,87.57
2023-02-17T20:30:00.866Z,88.73
2023-02-17T20:40:00.734Z,89.34
2023-02-17T20:50:00.812Z,92.45
2023-02-17T21:00:00.992Z,95.50
2023-02-17T21:10:01.204Z,96.31
2023-02-17T21:20:01.496Z,98.65
2023-02-17T21:30:01.616Z,98.30
2023-02-17T21:40:01.693Z,97.49
2023-02-17T21:50:01.952Z,96.87
2023-02-17T22:00:02.001Z,95.23
2023-02-17T22:10:02.261Z,94.82
2023-02-17T22:20:02.548Z,92.43
2023-02-17T22:30:02.621Z,90.55
2023-02-17T22:40:02.722Z,90.86
2023-02-17T22:50:02.998Z,89.73
2023-02-17T23:00:03.059Z,87.55
2023-02-17T23:10:03.262Z,87.04
2023-02-17T23:20:03.474Z,86.94
2023-02-17T23:30:03.603Z,86.29
2023-02-17T23:40:03.759Z,85.47
2023-02-17T23:50:03.978Z,84.45
